Terminal Aerodrome Forecast
Issued by NWS Bismarck, ND

Home | Current Version | Previous Version | Text Only | Print | Product List | Glossary Off
Versions: 1 2 3 4 5 6 7 8 9 10 11 12 13 14 15 16 17 18 19 20 21 22 23

169
FTUS43 KBIS 091729
TAFBIS
TAF
KBIS 091729Z 0918/1018 35004KT P6SM BKN060
      TEMPO 0918/0920 OVC015
     FM100800 07004KT P6SM BKN050
     FM101700 10007KT 3SM -SN OVC020=

USA.gov is the U.S. government's official web portal to all federal, state and local government web resources and services.